sensor_id;sensor_type;location;lat;lon;timestamp;temperature;humidity
38684;DHT22;24910;53.248;-6.134;2023-02-01T00:01:49;9.20;76.70
38684;DHT22;24910;53.248;-6.134;2023-02-01T00:04:18;9.20;76.70
38684;DHT22;24910;53.248;-6.134;2023-02-01T00:06:47;9.20;76.80
38684;DHT22;24910;53.248;-6.134;2023-02-01T00:09:16;9.20;76.70
38684;DHT22;24910;53.248;-6.134;2023-02-01T00:11:46;9.20;76.60
38684;DHT22;24910;53.248;-6.134;2023-02-01T00:14:15;9.20;76.60
38684;DHT22;24910;53.248;-6.134;2023-02-01T00:16:44;9.20;76.60
38684;DHT22;24910;53.248;-6.134;2023-02-01T00:19:15;9.20;76.40
38684;DHT22;24910;53.248;-6.134;2023-02-01T00:21:44;9.20;76.20
38684;DHT22;24910;53.248;-6.134;2023-02-01T00:24:13;9.20;76.20
38684;DHT22;24910;53.248;-6.134;2023-02-01T00:26:44;9.20;76.20
38684;DHT22;24910;53.248;-6.134;2023-02-01T00:29:15;9.20;76.30
38684;DHT22;24910;53.248;-6.134;2023-02-01T00:31:45;9.20;76.40
38684;DHT22;24910;53.248;-6.134;2023-02-01T00:34:16;9.20;76.60
38684;DHT22;24910;53.248;-6.134;2023-02-01T00:36:45;9.10;76.60
38684;DHT22;24910;53.248;-6.134;2023-02-01T00:39:15;9.10;76.70
38684;DHT22;24910;53.248;-6.134;2023-02-01T00:41:45;9.10;76.80
38684;DHT22;24910;53.248;-6.134;2023-02-01T00:44:14;9.10;77.00
38684;DHT22;24910;53.248;-6.134;2023-02-01T00:46:43;9.10;77.00
38684;DHT22;24910;53.248;-6.134;2023-02-01T00:49:13;9.10;77.00
38684;DHT22;24910;53.248;-6.134;2023-02-01T00:51:45;9.10;77.10
38684;DHT22;24910;53.248;-6.134;2023-02-01T00:54:15;9.10;77.20
38684;DHT22;24910;53.248;-6.134;2023-02-01T00:56:44;9.10;77.20
38684;DHT22;24910;53.248;-6.134;2023-02-01T00:59:13;9.10;77.20
38684;DHT22;24910;53.248;-6.134;2023-02-01T01:01:42;9.10;77.10
38684;DHT22;24910;53.248;-6.134;2023-02-01T01:04:12;9.10;77.10
38684;DHT22;24910;53.248;-6.134;2023-02-01T01:06:43;9.10;77.00
38684;DHT22;24910;53.248;-6.134;2023-02-01T01:09:12;9.10;77.10
38684;DHT22;24910;53.248;-6.134;2023-02-01T01:11:41;9.10;77.10
38684;DHT22;24910;53.248;-6.134;2023-02-01T01:14:11;9.10;77.20
38684;DHT22;24910;53.248;-6.134;2023-02-01T01:16:40;9.10;77.20
38684;DHT22;24910;53.248;-6.134;2023-02-01T01:19:09;9.10;77.20
38684;DHT22;24910;53.248;-6.134;2023-02-01T01:21:38;9.10;77.40
38684;DHT22;24910;53.248;-6.134;2023-02-01T01:24:09;9.10;77.40
38684;DHT22;24910;53.248;-6.134;2023-02-01T01:26:38;9.10;77.40
38684;DHT22;24910;53.248;-6.134;2023-02-01T01:29:09;9.20;77.70
38684;DHT22;24910;53.248;-6.134;2023-02-01T01:31:38;9.20;77.90
38684;DHT22;24910;53.248;-6.134;2023-02-01T01:34:08;9.20;78.10
38684;DHT22;24910;53.248;-6.134;2023-02-01T01:36:37;9.20;78.10
38684;DHT22;24910;53.248;-6.134;2023-02-01T01:39:08;9.20;78.10
38684;DHT22;24910;53.248;-6.134;2023-02-01T01:41:37;9.20;78.20
38684;DHT22;24910;53.248;-6.134;2023-02-01T01:47:20;9.20;78.30
38684;DHT22;24910;53.248;-6.134;2023-02-01T01:49:50;9.20;78.30
38684;DHT22;24910;53.248;-6.134;2023-02-01T01:52:20;9.20;78.30
38684;DHT22;24910;53.248;-6.134;2023-02-01T01:54:53;9.20;78.30
38684;DHT22;24910;53.248;-6.134;2023-02-01T01:57:25;9.20;78.20
38684;DHT22;24910;53.248;-6.134;2023-02-01T02:00:00;9.20;78.20
38684;DHT22;24910;53.248;-6.134;2023-02-01T02:02:41;9.20;78.40
38684;DHT22;24910;53.248;-6.134;2023-02-01T02:05:12;9.20;78.50
38684;DHT22;24910;53.248;-6.134;2023-02-01T02:07:46;9.20;78.60
38684;DHT22;24910;53.248;-6.134;2023-02-01T02:10:17;9.20;78.70
38684;DHT22;24910;53.248;-6.134;2023-02-01T02:12:48;9.20;78.70
38684;DHT22;24910;53.248;-6.134;2023-02-01T02:15:17;9.20;78.80
38684;DHT22;24910;53.248;-6.134;2023-02-01T02:17:55;9.20;78.80
38684;DHT22;24910;53.248;-6.134;2023-02-01T02:20:46;9.20;78.80
38684;DHT22;24910;53.248;-6.134;2023-02-01T02:27:02;9.20;78.70
38684;DHT22;24910;53.248;-6.134;2023-02-01T02:29:46;9.20;78.70
38684;DHT22;24910;53.248;-6.134;2023-02-01T02:32:51;9.20;78.70
38684;DHT22;24910;53.248;-6.134;2023-02-01T02:35:30;9.20;78.80
38684;DHT22;24910;53.248;-6.134;2023-02-01T02:38:09;9.20;78.80
38684;DHT22;24910;53.248;-6.134;2023-02-01T02:40:48;9.20;78.70
38684;DHT22;24910;53.248;-6.134;2023-02-01T02:43:22;9.20;78.70
38684;DHT22;24910;53.248;-6.134;2023-02-01T02:46:15;9.20;78.70
38684;DHT22;24910;53.248;-6.134;2023-02-01T02:49:07;9.20;78.70
38684;DHT22;24910;53.248;-6.134;2023-02-01T02:51:42;9.20;78.70
38684;DHT22;24910;53.248;-6.134;2023-02-01T02:54:32;9.20;78.80
38684;DHT22;24910;53.248;-6.134;2023-02-01T02:57:19;9.20;78.90
38684;DHT22;24910;53.248;-6.134;2023-02-01T03:00:09;9.20;78.90
38684;DHT22;24910;53.248;-6.134;2023-02-01T03:02:57;9.20;78.90
38684;DHT22;24910;53.248;-6.134;2023-02-01T03:05:45;9.20;78.80
38684;DHT22;24910;53.248;-6.134;2023-02-01T03:08:18;9.20;79.00
38684;DHT22;24910;53.248;-6.134;2023-02-01T03:10:52;9.20;79.10
38684;DHT22;24910;53.248;-6.134;2023-02-01T03:13:31;9.20;79.20
38684;DHT22;24910;53.248;-6.134;2023-02-01T03:16:04;9.20;79.30
38684;DHT22;24910;53.248;-6.134;2023-02-01T03:18:41;9.20;79.50
38684;DHT22;24910;53.248;-6.134;2023-02-01T03:21:17;9.20;79.50
38684;DHT22;24910;53.248;-6.134;2023-02-01T03:23:51;9.20;79.50
38684;DHT22;24910;53.248;-6.134;2023-02-01T03:26:23;9.20;79.60
38684;DHT22;24910;53.248;-6.134;2023-02-01T03:28:59;9.20;79.60
38684;DHT22;24910;53.248;-6.134;2023-02-01T03:31:32;9.20;79.60
38684;DHT22;24910;53.248;-6.134;2023-02-01T03:34:01;9.20;79.60
38684;DHT22;24910;53.248;-6.134;2023-02-01T03:36:37;9.20;79.60
38684;DHT22;24910;53.248;-6.134;2023-02-01T03:39:16;9.20;79.60
38684;DHT22;24910;53.248;-6.134;2023-02-01T03:41:50;9.20;79.50
38684;DHT22;24910;53.248;-6.134;2023-02-01T03:44:23;9.20;79.50
38684;DHT22;24910;53.248;-6.134;2023-02-01T03:46:56;9.20;79.60
38684;DHT22;24910;53.248;-6.134;2023-02-01T03:49:28;9.20;79.50
38684;DHT22;24910;53.248;-6.134;2023-02-01T03:51:58;9.20;80.30
38684;DHT22;24910;53.248;-6.134;2023-02-01T03:54:30;9.20;79.30
38684;DHT22;24910;53.248;-6.134;2023-02-01T03:57:02;9.20;79.10
38684;DHT22;24910;53.248;-6.134;2023-02-01T03:59:33;9.20;78.90
38684;DHT22;24910;53.248;-6.134;2023-02-01T04:02:03;9.20;78.70
38684;DHT22;24910;53.248;-6.134;2023-02-01T04:04:33;9.20;78.70
38684;DHT22;24910;53.248;-6.134;2023-02-01T04:07:04;9.20;78.60
38684;DHT22;24910;53.248;-6.134;2023-02-01T04:09:34;9.20;78.60
38684;DHT22;24910;53.248;-6.134;2023-02-01T04:12:06;9.20;78.50
38684;DHT22;24910;53.248;-6.134;2023-02-01T04:14:35;9.20;78.50
38684;DHT22;24910;53.248;-6.134;2023-02-01T04:17:04;9.20;78.40
38684;DHT22;24910;53.248;-6.134;2023-02-01T04:19:33;9.20;78.50
38684;DHT22;24910;53.248;-6.134;2023-02-01T04:22:02;9.20;78.40
38684;DHT22;24910;53.248;-6.134;2023-02-01T04:24:31;9.20;78.40
38684;DHT22;24910;53.248;-6.134;2023-02-01T04:27:02;9.20;78.50
38684;DHT22;24910;53.248;-6.134;2023-02-01T04:29:31;9.20;78.50
38684;DHT22;24910;53.248;-6.134;2023-02-01T04:32:00;9.20;78.50
38684;DHT22;24910;53.248;-6.134;2023-02-01T04:34:29;9.20;78.40
38684;DHT22;24910;53.248;-6.134;2023-02-01T04:36:58;9.20;78.40
38684;DHT22;24910;53.248;-6.134;2023-02-01T04:39:27;9.20;78.30
38684;DHT22;24910;53.248;-6.134;2023-02-01T04:41:57;9.20;78.30
38684;DHT22;24910;53.248;-6.134;2023-02-01T04:44:27;9.30;78.40
38684;DHT22;24910;53.248;-6.134;2023-02-01T04:46:56;9.30;78.30
38684;DHT22;24910;53.248;-6.134;2023-02-01T04:49:26;9.30;78.30
38684;DHT22;24910;53.248;-6.134;2023-02-01T04:51:55;9.30;78.30
38684;DHT22;24910;53.248;-6.134;2023-02-01T04:54:24;9.30;78.30
38684;DHT22;24910;53.248;-6.134;2023-02-01T04:56:54;9.30;78.30
38684;DHT22;24910;53.248;-6.134;2023-02-01T04:59:23;9.30;78.30
38684;DHT22;24910;53.248;-6.134;2023-02-01T05:01:53;9.30;78.30
38684;DHT22;24910;53.248;-6.134;2023-02-01T05:04:22;9.30;78.30
38684;DHT22;24910;53.248;-6.134;2023-02-01T05:06:51;9.30;78.30
38684;DHT22;24910;53.248;-6.134;2023-02-01T05:09:20;9.30;78.40
38684;DHT22;24910;53.248;-6.134;2023-02-01T05:11:49;9.30;78.30
38684;DHT22;24910;53.248;-6.134;2023-02-01T05:14:36;9.30;78.20
38684;DHT22;24910;53.248;-6.134;2023-02-01T05:17:06;9.30;78.10
38684;DHT22;24910;53.248;-6.134;2023-02-01T05:19:36;9.30;78.10
38684;DHT22;24910;53.248;-6.134;2023-02-01T05:22:05;9.30;78.20
38684;DHT22;24910;53.248;-6.134;2023-02-01T05:24:34;9.30;78.30
38684;DHT22;24910;53.248;-6.134;2023-02-01T05:27:03;9.30;78.40
38684;DHT22;24910;53.248;-6.134;2023-02-01T05:29:32;9.30;78.40
38684;DHT22;24910;53.248;-6.134;2023-02-01T05:32:01;9.30;78.40
38684;DHT22;24910;53.248;-6.134;2023-02-01T05:34:50;9.30;79.40
38684;DHT22;24910;53.248;-6.134;2023-02-01T05:37:19;9.30;78.50
38684;DHT22;24910;53.248;-6.134;2023-02-01T05:39:48;9.30;78.60
38684;DHT22;24910;53.248;-6.134;2023-02-01T05:42:17;9.30;78.60
38684;DHT22;24910;53.248;-6.134;2023-02-01T05:44:46;9.30;78.70
38684;DHT22;24910;53.248;-6.134;2023-02-01T05:47:15;9.30;78.80
38684;DHT22;24910;53.248;-6.134;2023-02-01T05:49:44;9.30;79.00
38684;DHT22;24910;53.248;-6.134;2023-02-01T05:52:14;9.30;79.00
38684;DHT22;24910;53.248;-6.134;2023-02-01T05:54:46;9.30;79.10
38684;DHT22;24910;53.248;-6.134;2023-02-01T05:57:18;9.40;79.20
38684;DHT22;24910;53.248;-6.134;2023-02-01T05:59:47;9.40;79.30
38684;DHT22;24910;53.248;-6.134;2023-02-01T06:02:17;9.40;79.30
38684;DHT22;24910;53.248;-6.134;2023-02-01T06:04:46;9.40;79.30
38684;DHT22;24910;53.248;-6.134;2023-02-01T06:07:17;9.40;79.40
38684;DHT22;24910;53.248;-6.134;2023-02-01T06:09:46;9.40;79.40
38684;DHT22;24910;53.248;-6.134;2023-02-01T06:12:15;9.40;79.50
38684;DHT22;24910;53.248;-6.134;2023-02-01T06:14:44;9.40;79.60
38684;DHT22;24910;53.248;-6.134;2023-02-01T06:17:13;9.40;79.70
38684;DHT22;24910;53.248;-6.134;2023-02-01T06:19:42;9.40;79.70
38684;DHT22;24910;53.248;-6.134;2023-02-01T06:22:12;9.40;79.80
38684;DHT22;24910;53.248;-6.134;2023-02-01T06:24:43;9.40;79.80
38684;DHT22;24910;53.248;-6.134;2023-02-01T06:27:12;9.40;80.00
38684;DHT22;24910;53.248;-6.134;2023-02-01T06:29:42;9.40;80.10
38684;DHT22;24910;53.248;-6.134;2023-02-01T06:32:11;9.40;80.10
38684;DHT22;24910;53.248;-6.134;2023-02-01T06:34:40;9.40;80.10
38684;DHT22;24910;53.248;-6.134;2023-02-01T06:37:09;9.40;80.20
38684;DHT22;24910;53.248;-6.134;2023-02-01T06:39:38;9.50;80.30
38684;DHT22;24910;53.248;-6.134;2023-02-01T06:42:09;9.50;80.20
38684;DHT22;24910;53.248;-6.134;2023-02-01T06:44:38;9.50;80.20
38684;DHT22;24910;53.248;-6.134;2023-02-01T06:47:07;9.50;80.20
38684;DHT22;24910;53.248;-6.134;2023-02-01T06:49:36;9.50;80.20
38684;DHT22;24910;53.248;-6.134;2023-02-01T06:52:05;9.50;80.20
38684;DHT22;24910;53.248;-6.134;2023-02-01T06:54:34;9.40;80.10
38684;DHT22;24910;53.248;-6.134;2023-02-01T06:57:05;9.50;80.30
38684;DHT22;24910;53.248;-6.134;2023-02-01T06:59:35;9.50;80.40
38684;DHT22;24910;53.248;-6.134;2023-02-01T07:02:04;9.50;80.40
38684;DHT22;24910;53.248;-6.134;2023-02-01T07:04:34;9.50;80.50
38684;DHT22;24910;53.248;-6.134;2023-02-01T07:07:04;9.50;80.60
38684;DHT22;24910;53.248;-6.134;2023-02-01T07:09:33;9.50;80.60
38684;DHT22;24910;53.248;-6.134;2023-02-01T07:12:03;9.50;80.60
38684;DHT22;24910;53.248;-6.134;2023-02-01T07:14:32;9.50;80.70
38684;DHT22;24910;53.248;-6.134;2023-02-01T07:17:02;9.50;80.60
38684;DHT22;24910;53.248;-6.134;2023-02-01T07:19:31;9.50;80.60
38684;DHT22;24910;53.248;-6.134;2023-02-01T07:22:00;9.50;80.50
38684;DHT22;24910;53.248;-6.134;2023-02-01T07:24:33;9.50;80.40
38684;DHT22;24910;53.248;-6.134;2023-02-01T07:27:02;9.50;80.40
38684;DHT22;24910;53.248;-6.134;2023-02-01T07:29:31;9.50;80.40
38684;DHT22;24910;53.248;-6.134;2023-02-01T07:32:02;9.50;80.40
38684;DHT22;24910;53.248;-6.134;2023-02-01T07:34:33;9.50;80.40
38684;DHT22;24910;53.248;-6.134;2023-02-01T07:37:02;9.50;80.40
38684;DHT22;24910;53.248;-6.134;2023-02-01T07:39:31;9.60;80.40
38684;DHT22;24910;53.248;-6.134;2023-02-01T07:42:01;9.60;80.50
38684;DHT22;24910;53.248;-6.134;2023-02-01T07:44:30;9.60;80.50
38684;DHT22;24910;53.248;-6.134;2023-02-01T07:46:59;9.60;80.50
38684;DHT22;24910;53.248;-6.134;2023-02-01T07:49:30;9.60;80.50
38684;DHT22;24910;53.248;-6.134;2023-02-01T07:51:59;9.60;80.60
38684;DHT22;24910;53.248;-6.134;2023-02-01T07:54:28;9.60;80.70
38684;DHT22;24910;53.248;-6.134;2023-02-01T07:56:57;9.60;80.70
38684;DHT22;24910;53.248;-6.134;2023-02-01T07:59:27;9.60;80.90
38684;DHT22;24910;53.248;-6.134;2023-02-01T08:01:56;9.60;80.90
38684;DHT22;24910;53.248;-6.134;2023-02-01T08:04:24;9.60;80.90
38684;DHT22;24910;53.248;-6.134;2023-02-01T08:06:54;9.70;81.00
38684;DHT22;24910;53.248;-6.134;2023-02-01T08:09:23;9.60;81.00
38684;DHT22;24910;53.248;-6.134;2023-02-01T08:11:53;9.60;81.10
38684;DHT22;24910;53.248;-6.134;2023-02-01T08:14:22;9.70;81.10
38684;DHT22;24910;53.248;-6.134;2023-02-01T08:16:51;9.70;81.10
38684;DHT22;24910;53.248;-6.134;2023-02-01T08:19:20;9.70;81.00
38684;DHT22;24910;53.248;-6.134;2023-02-01T08:21:49;9.70;81.00
38684;DHT22;24910;53.248;-6.134;2023-02-01T08:24:20;9.70;81.80
38684;DHT22;24910;53.248;-6.134;2023-02-01T08:26:49;9.70;80.90
38684;DHT22;24910;53.248;-6.134;2023-02-01T08:29:19;9.70;80.90
38684;DHT22;24910;53.248;-6.134;2023-02-01T08:31:48;9.70;80.60
38684;DHT22;24910;53.248;-6.134;2023-02-01T08:34:18;9.80;80.60
38684;DHT22;24910;53.248;-6.134;2023-02-01T08:36:47;9.80;80.60
38684;DHT22;24910;53.248;-6.134;2023-02-01T08:39:16;9.80;80.70
38684;DHT22;24910;53.248;-6.134;2023-02-01T08:41:47;9.80;80.70
38684;DHT22;24910;53.248;-6.134;2023-02-01T08:44:37;9.80;80.80
38684;DHT22;24910;53.248;-6.134;2023-02-01T08:47:06;9.80;80.80
38684;DHT22;24910;53.248;-6.134;2023-02-01T08:49:35;9.80;80.80
38684;DHT22;24910;53.248;-6.134;2023-02-01T08:52:04;9.80;80.80
38684;DHT22;24910;53.248;-6.134;2023-02-01T08:54:42;9.90;80.80
38684;DHT22;24910;53.248;-6.134;2023-02-01T08:57:12;9.80;80.80
38684;DHT22;24910;53.248;-6.134;2023-02-01T08:59:41;9.90;80.80
38684;DHT22;24910;53.248;-6.134;2023-02-01T09:02:12;9.90;80.70
38684;DHT22;24910;53.248;-6.134;2023-02-01T09:04:42;10.00;80.60
38684;DHT22;24910;53.248;-6.134;2023-02-01T09:07:11;10.00;80.40
38684;DHT22;24910;53.248;-6.134;2023-02-01T09:09:41;10.00;80.30
38684;DHT22;24910;53.248;-6.134;2023-02-01T09:12:12;10.10;80.20
38684;DHT22;24910;53.248;-6.134;2023-02-01T09:14:41;10.10;80.20
38684;DHT22;24910;53.248;-6.134;2023-02-01T09:17:10;10.10;80.10
38684;DHT22;24910;53.248;-6.134;2023-02-01T09:19:41;10.10;80.20
38684;DHT22;24910;53.248;-6.134;2023-02-01T09:22:10;10.10;80.20
38684;DHT22;24910;53.248;-6.134;2023-02-01T09:24:39;10.20;80.30
38684;DHT22;24910;53.248;-6.134;2023-02-01T09:27:08;10.20;80.30
38684;DHT22;24910;53.248;-6.134;2023-02-01T09:29:39;10.20;80.20
38684;DHT22;24910;53.248;-6.134;2023-02-01T09:32:08;10.30;80.30
38684;DHT22;24910;53.248;-6.134;2023-02-01T09:34:37;10.30;80.30
38684;DHT22;24910;53.248;-6.134;2023-02-01T09:37:06;10.30;80.20
38684;DHT22;24910;53.248;-6.134;2023-02-01T09:39:35;10.30;80.10
38684;DHT22;24910;53.248;-6.134;2023-02-01T09:42:16;10.30;80.20
38684;DHT22;24910;53.248;-6.134;2023-02-01T09:45:08;10.30;80.20
38684;DHT22;24910;53.248;-6.134;2023-02-01T09:47:43;10.30;80.20
38684;DHT22;24910;53.248;-6.134;2023-02-01T09:50:16;10.30;80.10
38684;DHT22;24910;53.248;-6.134;2023-02-01T09:52:54;10.40;80.20
38684;DHT22;24910;53.248;-6.134;2023-02-01T09:55:30;10.40;80.30
38684;DHT22;24910;53.248;-6.134;2023-02-01T09:58:05;10.40;80.20
38684;DHT22;24910;53.248;-6.134;2023-02-01T10:00:38;10.40;80.30
38684;DHT22;24910;53.248;-6.134;2023-02-01T10:03:11;10.40;80.30
38684;DHT22;24910;53.248;-6.134;2023-02-01T10:05:56;10.50;80.30
38684;DHT22;24910;53.248;-6.134;2023-02-01T10:08:37;10.50;80.40
38684;DHT22;24910;53.248;-6.134;2023-02-01T10:11:18;10.50;80.40
38684;DHT22;24910;53.248;-6.134;2023-02-01T10:13:55;10.60;80.50
38684;DHT22;24910;53.248;-6.134;2023-02-01T10:16:38;10.60;80.40
38684;DHT22;24910;53.248;-6.134;2023-02-01T10:19:22;10.70;80.40
38684;DHT22;24910;53.248;-6.134;2023-02-01T10:21:57;10.70;80.30
38684;DHT22;24910;53.248;-6.134;2023-02-01T10:24:40;10.80;80.30
38684;DHT22;24910;53.248;-6.134;2023-02-01T10:27:17;10.80;80.20
38684;DHT22;24910;53.248;-6.134;2023-02-01T10:29:52;10.90;80.20
38684;DHT22;24910;53.248;-6.134;2023-02-01T10:32:29;10.90;80.00
38684;DHT22;24910;53.248;-6.134;2023-02-01T10:35:00;11.00;79.90
38684;DHT22;24910;53.248;-6.134;2023-02-01T10:37:31;10.90;79.70
38684;DHT22;24910;53.248;-6.134;2023-02-01T10:40:02;11.00;79.70
38684;DHT22;24910;53.248;-6.134;2023-02-01T10:42:39;11.00;79.50
38684;DHT22;24910;53.248;-6.134;2023-02-01T10:45:13;11.00;79.50
38684;DHT22;24910;53.248;-6.134;2023-02-01T10:47:44;11.00;79.40
38684;DHT22;24910;53.248;-6.134;2023-02-01T10:50:19;11.00;79.40
38684;DHT22;24910;53.248;-6.134;2023-02-01T10:52:58;11.10;79.30
38684;DHT22;24910;53.248;-6.134;2023-02-01T10:55:33;11.20;79.30
38684;DHT22;24910;53.248;-6.134;2023-02-01T10:58:07;11.20;79.30
38684;DHT22;24910;53.248;-6.134;2023-02-01T11:00:43;11.30;79.20
38684;DHT22;24910;53.248;-6.134;2023-02-01T11:03:38;11.30;79.10
38684;DHT22;24910;53.248;-6.134;2023-02-01T11:06:19;11.30;79.10
38684;DHT22;24910;53.248;-6.134;2023-02-01T11:08:52;11.30;78.90
38684;DHT22;24910;53.248;-6.134;2023-02-01T11:11:22;11.30;78.80
38684;DHT22;24910;53.248;-6.134;2023-02-01T11:13:54;11.30;78.70
38684;DHT22;24910;53.248;-6.134;2023-02-01T11:16:30;11.30;78.80
38684;DHT22;24910;53.248;-6.134;2023-02-01T11:19:01;11.30;78.90
38684;DHT22;24910;53.248;-6.134;2023-02-01T11:21:31;11.40;78.90
38684;DHT22;24910;53.248;-6.134;2023-02-01T11:24:02;11.40;79.00
38684;DHT22;24910;53.248;-6.134;2023-02-01T11:26:32;11.40;78.90
38684;DHT22;24910;53.248;-6.134;2023-02-01T11:29:03;11.40;78.90
38684;DHT22;24910;53.248;-6.134;2023-02-01T11:31:34;11.40;79.00
38684;DHT22;24910;53.248;-6.134;2023-02-01T11:34:09;11.40;80.00
38684;DHT22;24910;53.248;-6.134;2023-02-01T11:36:40;11.40;79.10
38684;DHT22;24910;53.248;-6.134;2023-02-01T11:39:20;11.50;79.00
38684;DHT22;24910;53.248;-6.134;2023-02-01T11:42:00;11.70;78.80
38684;DHT22;24910;53.248;-6.134;2023-02-01T11:44:33;11.70;78.40
38684;DHT22;24910;53.248;-6.134;2023-02-01T11:47:26;11.80;78.20
38684;DHT22;24910;53.248;-6.134;2023-02-01T11:50:00;11.90;78.00
38684;DHT22;24910;53.248;-6.134;2023-02-01T11:52:43;12.00;77.70
38684;DHT22;24910;53.248;-6.134;2023-02-01T11:55:50;12.00;77.20
38684;DHT22;24910;53.248;-6.134;2023-02-01T12:01:22;12.20;76.70
38684;DHT22;24910;53.248;-6.134;2023-02-01T12:04:19;12.30;76.60
38684;DHT22;24910;53.248;-6.134;2023-02-01T12:06:54;12.40;76.40
38684;DHT22;24910;53.248;-6.134;2023-02-01T12:09:36;12.40;76.20
38684;DHT22;24910;53.248;-6.134;2023-02-01T12:12:16;12.40;76.90
38684;DHT22;24910;53.248;-6.134;2023-02-01T12:14:56;12.40;75.90
38684;DHT22;24910;53.248;-6.134;2023-02-01T12:17:42;12.40;75.80
38684;DHT22;24910;53.248;-6.134;2023-02-01T12:20:24;12.40;75.80
38684;DHT22;24910;53.248;-6.134;2023-02-01T12:23:11;12.40;75.60
38684;DHT22;24910;53.248;-6.134;2023-02-01T12:26:00;12.40;75.50
38684;DHT22;24910;53.248;-6.134;2023-02-01T12:28:55;12.40;75.60
38684;DHT22;24910;53.248;-6.134;2023-02-01T12:31:44;12.40;75.50
38684;DHT22;24910;53.248;-6.134;2023-02-01T12:34:46;12.40;75.60
38684;DHT22;24910;53.248;-6.134;2023-02-01T12:37:25;12.40;75.50
38684;DHT22;24910;53.248;-6.134;2023-02-01T12:40:07;12.40;75.50
38684;DHT22;24910;53.248;-6.134;2023-02-01T12:42:45;12.50;75.50
38684;DHT22;24910;53.248;-6.134;2023-02-01T12:45:25;12.50;75.40
38684;DHT22;24910;53.248;-6.134;2023-02-01T12:47:59;12.50;75.30
38684;DHT22;24910;53.248;-6.134;2023-02-01T12:50:34;12.50;75.30
38684;DHT22;24910;53.248;-6.134;2023-02-01T12:53:12;12.60;75.10
38684;DHT22;24910;53.248;-6.134;2023-02-01T12:55:51;12.60;75.80
38684;DHT22;24910;53.248;-6.134;2023-02-01T12:58:24;12.70;74.90
38684;DHT22;24910;53.248;-6.134;2023-02-01T13:00:59;12.70;74.70
38684;DHT22;24910;53.248;-6.134;2023-02-01T13:03:35;12.70;74.50
38684;DHT22;24910;53.248;-6.134;2023-02-01T13:06:12;12.70;74.40
38684;DHT22;24910;53.248;-6.134;2023-02-01T13:08:45;12.80;74.50
38684;DHT22;24910;53.248;-6.134;2023-02-01T13:11:22;12.80;74.50
38684;DHT22;24910;53.248;-6.134;2023-02-01T13:13:59;12.80;74.20
38684;DHT22;24910;53.248;-6.134;2023-02-01T13:16:31;12.80;74.20
38684;DHT22;24910;53.248;-6.134;2023-02-01T13:19:10;12.80;74.10
38684;DHT22;24910;53.248;-6.134;2023-02-01T13:21:45;12.80;74.10
38684;DHT22;24910;53.248;-6.134;2023-02-01T13:24:32;12.80;74.00
38684;DHT22;24910;53.248;-6.134;2023-02-01T13:27:03;12.80;73.80
38684;DHT22;24910;53.248;-6.134;2023-02-01T13:29:33;12.80;73.70
38684;DHT22;24910;53.248;-6.134;2023-02-01T13:32:25;12.80;73.60
38684;DHT22;24910;53.248;-6.134;2023-02-01T13:38:45;12.70;73.40
38684;DHT22;24910;53.248;-6.134;2023-02-01T13:41:27;12.80;73.50
38684;DHT22;24910;53.248;-6.134;2023-02-01T13:44:01;12.80;73.50
38684;DHT22;24910;53.248;-6.134;2023-02-01T13:46:39;12.80;73.40
38684;DHT22;24910;53.248;-6.134;2023-02-01T13:49:18;12.80;73.30
38684;DHT22;24910;53.248;-6.134;2023-02-01T13:51:50;12.80;73.20
38684;DHT22;24910;53.248;-6.134;2023-02-01T13:54:31;12.80;73.20
38684;DHT22;24910;53.248;-6.134;2023-02-01T13:57:02;12.80;73.20
38684;DHT22;24910;53.248;-6.134;2023-02-01T14:00:07;12.80;73.20
38684;DHT22;24910;53.248;-6.134;2023-02-01T14:03:01;12.80;73.10
38684;DHT22;24910;53.248;-6.134;2023-02-01T14:08:41;12.80;73.00
38684;DHT22;24910;53.248;-6.134;2023-02-01T14:11:35;12.80;73.00
38684;DHT22;24910;53.248;-6.134;2023-02-01T14:17:37;12.80;73.10
38684;DHT22;24910;53.248;-6.134;2023-02-01T14:23:21;12.70;73.40
38684;DHT22;24910;53.248;-6.134;2023-02-01T14:26:04;12.70;73.50
38684;DHT22;24910;53.248;-6.134;2023-02-01T14:28:39;12.70;73.60
38684;DHT22;24910;53.248;-6.134;2023-02-01T14:31:26;12.70;73.80
38684;DHT22;24910;53.248;-6.134;2023-02-01T14:34:03;12.70;73.90
38684;DHT22;24910;53.248;-6.134;2023-02-01T14:36:42;12.70;74.00
38684;DHT22;24910;53.248;-6.134;2023-02-01T14:39:30;12.70;73.90
38684;DHT22;24910;53.248;-6.134;2023-02-01T14:42:03;12.60;73.80
38684;DHT22;24910;53.248;-6.134;2023-02-01T14:44:35;12.70;73.90
38684;DHT22;24910;53.248;-6.134;2023-02-01T14:50:12;12.70;73.80
38684;DHT22;24910;53.248;-6.134;2023-02-01T14:52:46;12.70;73.70
38684;DHT22;24910;53.248;-6.134;2023-02-01T14:55:17;12.70;73.70
38684;DHT22;24910;53.248;-6.134;2023-02-01T14:57:51;12.70;73.60
38684;DHT22;24910;53.248;-6.134;2023-02-01T15:00:24;12.70;73.60
38684;DHT22;24910;53.248;-6.134;2023-02-01T15:02:56;12.70;73.60
38684;DHT22;24910;53.248;-6.134;2023-02-01T15:05:32;12.70;73.50
38684;DHT22;24910;53.248;-6.134;2023-02-01T15:08:17;12.60;74.30
38684;DHT22;24910;53.248;-6.134;2023-02-01T15:10:48;12.60;73.40
38684;DHT22;24910;53.248;-6.134;2023-02-01T15:13:21;12.60;73.50
38684;DHT22;24910;53.248;-6.134;2023-02-01T15:16:04;12.60;73.40
38684;DHT22;24910;53.248;-6.134;2023-02-01T15:18:34;12.50;73.30
38684;DHT22;24910;53.248;-6.134;2023-02-01T15:21:06;12.50;73.30
38684;DHT22;24910;53.248;-6.134;2023-02-01T15:24:10;12.50;73.30
38684;DHT22;24910;53.248;-6.134;2023-02-01T15:26:40;12.50;73.30
38684;DHT22;24910;53.248;-6.134;2023-02-01T15:29:11;12.50;73.30
38684;DHT22;24910;53.248;-6.134;2023-02-01T15:31:42;12.50;73.30
38684;DHT22;24910;53.248;-6.134;2023-02-01T15:34:12;12.50;73.30
38684;DHT22;24910;53.248;-6.134;2023-02-01T15:36:43;12.50;73.30
38684;DHT22;24910;53.248;-6.134;2023-02-01T15:39:29;12.40;73.30
38684;DHT22;24910;53.248;-6.134;2023-02-01T15:42:08;12.40;73.20
38684;DHT22;24910;53.248;-6.134;2023-02-01T15:44:40;12.40;73.40
38684;DHT22;24910;53.248;-6.134;2023-02-01T15:47:15;12.40;73.50
38684;DHT22;24910;53.248;-6.134;2023-02-01T15:49:47;12.40;73.50
38684;DHT22;24910;53.248;-6.134;2023-02-01T15:52:26;12.30;73.50
38684;DHT22;24910;53.248;-6.134;2023-02-01T15:54:58;12.30;73.70
38684;DHT22;24910;53.248;-6.134;2023-02-01T15:57:30;12.20;73.70
38684;DHT22;24910;53.248;-6.134;2023-02-01T16:00:02;12.20;73.90
38684;DHT22;24910;53.248;-6.134;2023-02-01T16:02:51;12.20;74.10
38684;DHT22;24910;53.248;-6.134;2023-02-01T16:05:30;12.10;74.10
38684;DHT22;24910;53.248;-6.134;2023-02-01T16:08:04;12.10;75.00
38684;DHT22;24910;53.248;-6.134;2023-02-01T16:10:39;12.10;74.10
38684;DHT22;24910;53.248;-6.134;2023-02-01T16:13:09;12.10;74.20
38684;DHT22;24910;53.248;-6.134;2023-02-01T16:15:39;12.10;74.30
38684;DHT22;24910;53.248;-6.134;2023-02-01T16:18:09;12.00;74.30
38684;DHT22;24910;53.248;-6.134;2023-02-01T16:20:39;12.00;74.40
38684;DHT22;24910;53.248;-6.134;2023-02-01T16:23:10;11.90;74.40
38684;DHT22;24910;53.248;-6.134;2023-02-01T16:25:40;11.90;74.50
38684;DHT22;24910;53.248;-6.134;2023-02-01T16:28:09;11.80;74.60
38684;DHT22;24910;53.248;-6.134;2023-02-01T16:30:38;11.80;74.80
38684;DHT22;24910;53.248;-6.134;2023-02-01T16:33:12;11.80;74.90